sensor_id;sensor_type;location;lat;lon;timestamp;temperature;humidity
21331;DHT22;10824;51.632;4.950;2022-07-18T00:00:21;18.90;54.60
21331;DHT22;10824;51.632;4.950;2022-07-18T00:02:48;18.90;54.60
21331;DHT22;10824;51.632;4.950;2022-07-18T00:05:15;18.70;54.50
21331;DHT22;10824;51.632;4.950;2022-07-18T00:07:42;18.70;51.70
21331;DHT22;10824;51.632;4.950;2022-07-18T00:10:10;18.70;50.50
21331;DHT22;10824;51.632;4.950;2022-07-18T00:12:37;18.60;49.20
21331;DHT22;10824;51.632;4.950;2022-07-18T00:15:04;18.70;49.90
21331;DHT22;10824;51.632;4.950;2022-07-18T00:17:32;18.60;49.60
21331;DHT22;10824;51.632;4.950;2022-07-18T00:19:59;18.60;47.10
21331;DHT22;10824;51.632;4.950;2022-07-18T00:22:26;18.50;48.90
21331;DHT22;10824;51.632;4.950;2022-07-18T00:24:53;18.50;47.00
21331;DHT22;10824;51.632;4.950;2022-07-18T00:27:20;18.50;46.40
21331;DHT22;10824;51.632;4.950;2022-07-18T00:29:47;18.40;46.90
21331;DHT22;10824;51.632;4.950;2022-07-18T00:32:14;18.40;45.30
21331;DHT22;10824;51.632;4.950;2022-07-18T00:34:41;18.50;46.00
21331;DHT22;10824;51.632;4.950;2022-07-18T00:37:08;18.40;45.50
21331;DHT22;10824;51.632;4.950;2022-07-18T00:39:37;18.30;45.10
21331;DHT22;10824;51.632;4.950;2022-07-18T00:42:04;18.20;45.40
21331;DHT22;10824;51.632;4.950;2022-07-18T00:44:31;18.10;45.50
21331;DHT22;10824;51.632;4.950;2022-07-18T00:47:00;18.10;46.60
21331;DHT22;10824;51.632;4.950;2022-07-18T00:49:29;18.10;46.30
21331;DHT22;10824;51.632;4.950;2022-07-18T00:51:56;18.10;46.70
21331;DHT22;10824;51.632;4.950;2022-07-18T00:54:23;18.00;49.10
21331;DHT22;10824;51.632;4.950;2022-07-18T00:56:51;18.00;48.80
21331;DHT22;10824;51.632;4.950;2022-07-18T00:59:18;18.10;47.50
21331;DHT22;10824;51.632;4.950;2022-07-18T01:01:46;18.10;46.70
21331;DHT22;10824;51.632;4.950;2022-07-18T01:04:20;18.10;45.70
21331;DHT22;10824;51.632;4.950;2022-07-18T01:06:49;18.00;46.70
21331;DHT22;10824;51.632;4.950;2022-07-18T01:09:17;18.00;46.20
21331;DHT22;10824;51.632;4.950;2022-07-18T01:11:46;17.90;49.50
21331;DHT22;10824;51.632;4.950;2022-07-18T01:14:14;17.80;49.00
21331;DHT22;10824;51.632;4.950;2022-07-18T01:16:41;17.80;49.00
21331;DHT22;10824;51.632;4.950;2022-07-18T01:19:10;17.90;48.20
21331;DHT22;10824;51.632;4.950;2022-07-18T01:21:37;17.90;47.50
21331;DHT22;10824;51.632;4.950;2022-07-18T01:24:05;17.70;50.00
21331;DHT22;10824;51.632;4.950;2022-07-18T01:26:34;17.70;51.50
21331;DHT22;10824;51.632;4.950;2022-07-18T01:29:03;17.70;51.40
21331;DHT22;10824;51.632;4.950;2022-07-18T01:31:30;17.80;50.40
21331;DHT22;10824;51.632;4.950;2022-07-18T01:34:00;17.70;51.10
21331;DHT22;10824;51.632;4.950;2022-07-18T01:36:28;17.70;50.90
21331;DHT22;10824;51.632;4.950;2022-07-18T01:38:56;17.70;51.20
21331;DHT22;10824;51.632;4.950;2022-07-18T01:41:23;17.70;51.60
21331;DHT22;10824;51.632;4.950;2022-07-18T01:43:50;17.60;52.30
21331;DHT22;10824;51.632;4.950;2022-07-18T01:46:17;17.60;53.00
21331;DHT22;10824;51.632;4.950;2022-07-18T01:48:44;17.60;52.80
21331;DHT22;10824;51.632;4.950;2022-07-18T01:51:11;17.60;53.60
21331;DHT22;10824;51.632;4.950;2022-07-18T01:53:39;17.60;52.80
21331;DHT22;10824;51.632;4.950;2022-07-18T01:56:07;17.60;52.40
21331;DHT22;10824;51.632;4.950;2022-07-18T01:58:34;17.60;52.90
21331;DHT22;10824;51.632;4.950;2022-07-18T02:01:01;17.50;53.40
21331;DHT22;10824;51.632;4.950;2022-07-18T02:03:29;17.40;53.80
21331;DHT22;10824;51.632;4.950;2022-07-18T02:05:56;17.40;53.90
21331;DHT22;10824;51.632;4.950;2022-07-18T02:08:25;17.40;54.30
21331;DHT22;10824;51.632;4.950;2022-07-18T02:10:52;17.30;55.30
21331;DHT22;10824;51.632;4.950;2022-07-18T02:13:18;17.30;55.10
21331;DHT22;10824;51.632;4.950;2022-07-18T02:15:47;17.30;55.60
21331;DHT22;10824;51.632;4.950;2022-07-18T02:18:14;17.10;56.30
21331;DHT22;10824;51.632;4.950;2022-07-18T02:20:42;17.10;56.80
21331;DHT22;10824;51.632;4.950;2022-07-18T02:23:10;17.10;56.80
21331;DHT22;10824;51.632;4.950;2022-07-18T02:25:37;17.10;58.10
21331;DHT22;10824;51.632;4.950;2022-07-18T02:28:04;17.10;59.90
21331;DHT22;10824;51.632;4.950;2022-07-18T02:30:31;17.10;59.20
21331;DHT22;10824;51.632;4.950;2022-07-18T02:32:59;17.20;58.70
21331;DHT22;10824;51.632;4.950;2022-07-18T02:35:26;17.20;58.50
21331;DHT22;10824;51.632;4.950;2022-07-18T02:37:53;17.10;59.80
21331;DHT22;10824;51.632;4.950;2022-07-18T02:40:20;17.00;61.40
21331;DHT22;10824;51.632;4.950;2022-07-18T02:42:47;17.10;60.00
21331;DHT22;10824;51.632;4.950;2022-07-18T02:45:14;17.10;60.10
21331;DHT22;10824;51.632;4.950;2022-07-18T02:47:42;17.00;59.50
21331;DHT22;10824;51.632;4.950;2022-07-18T02:50:10;17.00;58.70
21331;DHT22;10824;51.632;4.950;2022-07-18T02:52:39;17.10;60.70
21331;DHT22;10824;51.632;4.950;2022-07-18T02:55:07;17.00;62.30
21331;DHT22;10824;51.632;4.950;2022-07-18T02:57:35;17.00;63.10
21331;DHT22;10824;51.632;4.950;2022-07-18T03:00:06;16.90;64.10
21331;DHT22;10824;51.632;4.950;2022-07-18T03:02:34;16.90;65.80
21331;DHT22;10824;51.632;4.950;2022-07-18T03:05:02;16.70;68.60
21331;DHT22;10824;51.632;4.950;2022-07-18T03:07:29;16.70;70.70
21331;DHT22;10824;51.632;4.950;2022-07-18T03:09:57;16.70;70.00
21331;DHT22;10824;51.632;4.950;2022-07-18T03:12:24;16.70;69.70
21331;DHT22;10824;51.632;4.950;2022-07-18T03:14:51;16.70;68.80
21331;DHT22;10824;51.632;4.950;2022-07-18T03:17:18;16.70;68.70
21331;DHT22;10824;51.632;4.950;2022-07-18T03:19:45;16.60;69.20
21331;DHT22;10824;51.632;4.950;2022-07-18T03:22:12;16.50;70.90
21331;DHT22;10824;51.632;4.950;2022-07-18T03:24:39;16.40;71.60
21331;DHT22;10824;51.632;4.950;2022-07-18T03:27:07;16.40;71.80
21331;DHT22;10824;51.632;4.950;2022-07-18T03:29:34;16.60;71.10
21331;DHT22;10824;51.632;4.950;2022-07-18T03:32:01;16.50;71.30
21331;DHT22;10824;51.632;4.950;2022-07-18T03:34:28;16.50;72.30
21331;DHT22;10824;51.632;4.950;2022-07-18T03:36:55;16.40;72.70
21331;DHT22;10824;51.632;4.950;2022-07-18T03:39:23;16.40;74.00
21331;DHT22;10824;51.632;4.950;2022-07-18T03:41:50;16.40;74.40
21331;DHT22;10824;51.632;4.950;2022-07-18T03:44:18;16.30;75.90
21331;DHT22;10824;51.632;4.950;2022-07-18T03:46:46;16.40;74.90
21331;DHT22;10824;51.632;4.950;2022-07-18T03:49:13;16.40;76.60
21331;DHT22;10824;51.632;4.950;2022-07-18T03:51:40;16.50;74.70
21331;DHT22;10824;51.632;4.950;2022-07-18T03:54:07;16.70;73.10
21331;DHT22;10824;51.632;4.950;2022-07-18T03:56:37;16.60;72.80
21331;DHT22;10824;51.632;4.950;2022-07-18T03:59:05;16.50;73.20
21331;DHT22;10824;51.632;4.950;2022-07-18T04:01:32;16.40;73.50
21331;DHT22;10824;51.632;4.950;2022-07-18T04:03:59;16.40;72.60
21331;DHT22;10824;51.632;4.950;2022-07-18T04:06:26;16.40;72.30
21331;DHT22;10824;51.632;4.950;2022-07-18T04:08:53;16.40;72.60
21331;DHT22;10824;51.632;4.950;2022-07-18T04:11:21;16.50;72.10
21331;DHT22;10824;51.632;4.950;2022-07-18T04:13:51;16.40;73.40
21331;DHT22;10824;51.632;4.950;2022-07-18T04:16:19;16.50;73.10
21331;DHT22;10824;51.632;4.950;2022-07-18T04:18:47;16.50;72.80
21331;DHT22;10824;51.632;4.950;2022-07-18T04:21:15;16.60;72.50
21331;DHT22;10824;51.632;4.950;2022-07-18T04:23:43;16.60;71.80
21331;DHT22;10824;51.632;4.950;2022-07-18T04:26:10;16.70;72.00
21331;DHT22;10824;51.632;4.950;2022-07-18T04:28:37;16.60;72.00
21331;DHT22;10824;51.632;4.950;2022-07-18T04:31:04;16.50;73.20
21331;DHT22;10824;51.632;4.950;2022-07-18T04:33:31;16.60;74.00
21331;DHT22;10824;51.632;4.950;2022-07-18T04:35:58;16.50;75.20
21331;DHT22;10824;51.632;4.950;2022-07-18T04:38:25;16.60;75.40
21331;DHT22;10824;51.632;4.950;2022-07-18T04:40:53;16.70;73.50
21331;DHT22;10824;51.632;4.950;2022-07-18T04:43:20;16.70;73.20
21331;DHT22;10824;51.632;4.950;2022-07-18T04:45:47;16.70;73.70
21331;DHT22;10824;51.632;4.950;2022-07-18T04:48:14;16.70;74.10
21331;DHT22;10824;51.632;4.950;2022-07-18T04:50:41;16.70;74.00
21331;DHT22;10824;51.632;4.950;2022-07-18T04:53:17;16.80;74.00
21331;DHT22;10824;51.632;4.950;2022-07-18T04:55:44;16.80;73.50
21331;DHT22;10824;51.632;4.950;2022-07-18T04:58:11;16.80;72.60
21331;DHT22;10824;51.632;4.950;2022-07-18T05:00:41;16.90;72.40
21331;DHT22;10824;51.632;4.950;2022-07-18T05:03:08;16.90;71.40
21331;DHT22;10824;51.632;4.950;2022-07-18T05:05:37;16.90;71.40
21331;DHT22;10824;51.632;4.950;2022-07-18T05:08:05;17.00;70.80
21331;DHT22;10824;51.632;4.950;2022-07-18T05:10:32;17.00;70.30
21331;DHT22;10824;51.632;4.950;2022-07-18T05:13:00;17.00;70.80
21331;DHT22;10824;51.632;4.950;2022-07-18T05:15:28;17.10;70.70
21331;DHT22;10824;51.632;4.950;2022-07-18T05:17:55;17.00;71.60
21331;DHT22;10824;51.632;4.950;2022-07-18T05:20:25;17.10;71.30
21331;DHT22;10824;51.632;4.950;2022-07-18T05:22:53;17.20;70.40
21331;DHT22;10824;51.632;4.950;2022-07-18T05:25:21;17.20;68.40
21331;DHT22;10824;51.632;4.950;2022-07-18T05:27:52;17.30;67.60
21331;DHT22;10824;51.632;4.950;2022-07-18T05:30:41;17.40;66.90
21331;DHT22;10824;51.632;4.950;2022-07-18T05:33:08;17.50;65.50
21331;DHT22;10824;51.632;4.950;2022-07-18T05:35:36;17.50;65.20
21331;DHT22;10824;51.632;4.950;2022-07-18T05:38:03;17.60;65.80
21331;DHT22;10824;51.632;4.950;2022-07-18T05:40:33;17.60;68.20
21331;DHT22;10824;51.632;4.950;2022-07-18T05:43:00;17.70;67.20
21331;DHT22;10824;51.632;4.950;2022-07-18T05:45:27;17.80;67.40
21331;DHT22;10824;51.632;4.950;2022-07-18T05:47:57;17.90;66.70
21331;DHT22;10824;51.632;4.950;2022-07-18T05:50:24;17.90;67.30
21331;DHT22;10824;51.632;4.950;2022-07-18T05:52:52;18.10;65.40
21331;DHT22;10824;51.632;4.950;2022-07-18T05:55:19;18.20;64.90
21331;DHT22;10824;51.632;4.950;2022-07-18T05:57:47;18.30;60.30
21331;DHT22;10824;51.632;4.950;2022-07-18T06:00:17;18.50;61.10
21331;DHT22;10824;51.632;4.950;2022-07-18T06:02:49;18.60;61.30
21331;DHT22;10824;51.632;4.950;2022-07-18T06:05:17;18.80;61.40
21331;DHT22;10824;51.632;4.950;2022-07-18T06:07:51;18.80;58.80
21331;DHT22;10824;51.632;4.950;2022-07-18T06:10:18;18.90;59.20
21331;DHT22;10824;51.632;4.950;2022-07-18T06:12:46;19.00;57.40
21331;DHT22;10824;51.632;4.950;2022-07-18T06:15:14;19.10;57.30
21331;DHT22;10824;51.632;4.950;2022-07-18T06:17:42;19.30;55.40
21331;DHT22;10824;51.632;4.950;2022-07-18T06:20:11;19.40;55.50
21331;DHT22;10824;51.632;4.950;2022-07-18T06:22:38;19.50;57.40
21331;DHT22;10824;51.632;4.950;2022-07-18T06:25:07;19.60;57.60
21331;DHT22;10824;51.632;4.950;2022-07-18T06:27:35;19.70;56.70
21331;DHT22;10824;51.632;4.950;2022-07-18T06:30:08;20.00;54.20
21331;DHT22;10824;51.632;4.950;2022-07-18T06:32:37;20.20;38.10
21331;DHT22;10824;51.632;4.950;2022-07-18T06:35:05;20.40;35.40
21331;DHT22;10824;51.632;4.950;2022-07-18T06:37:33;20.60;33.30
21331;DHT22;10824;51.632;4.950;2022-07-18T06:40:00;20.80;30.90
21331;DHT22;10824;51.632;4.950;2022-07-18T06:42:30;20.80;29.60
21331;DHT22;10824;51.632;4.950;2022-07-18T06:44:58;20.90;29.70
21331;DHT22;10824;51.632;4.950;2022-07-18T06:47:25;20.90;30.40
21331;DHT22;10824;51.632;4.950;2022-07-18T06:49:52;21.10;30.70
21331;DHT22;10824;51.632;4.950;2022-07-18T06:52:19;21.20;30.00
21331;DHT22;10824;51.632;4.950;2022-07-18T06:54:50;21.40;27.70
21331;DHT22;10824;51.632;4.950;2022-07-18T06:57:22;21.40;27.90
21331;DHT22;10824;51.632;4.950;2022-07-18T06:59:55;21.40;26.00
21331;DHT22;10824;51.632;4.950;2022-07-18T07:02:55;21.50;26.30
21331;DHT22;10824;51.632;4.950;2022-07-18T07:05:22;21.70;27.00
21331;DHT22;10824;51.632;4.950;2022-07-18T07:07:51;21.80;26.60
21331;DHT22;10824;51.632;4.950;2022-07-18T07:10:18;21.80;25.80
21331;DHT22;10824;51.632;4.950;2022-07-18T07:12:50;21.90;25.90
21331;DHT22;10824;51.632;4.950;2022-07-18T07:15:18;22.00;24.80
21331;DHT22;10824;51.632;4.950;2022-07-18T07:17:46;22.10;24.50
21331;DHT22;10824;51.632;4.950;2022-07-18T07:20:13;22.20;23.90
21331;DHT22;10824;51.632;4.950;2022-07-18T07:22:55;22.30;23.00
21331;DHT22;10824;51.632;4.950;2022-07-18T07:25:27;22.40;22.30
21331;DHT22;10824;51.632;4.950;2022-07-18T07:27:54;22.50;22.70
21331;DHT22;10824;51.632;4.950;2022-07-18T07:30:29;22.70;22.10
21331;DHT22;10824;51.632;4.950;2022-07-18T07:32:56;22.80;21.40
21331;DHT22;10824;51.632;4.950;2022-07-18T07:35:24;22.90;21.80
21331;DHT22;10824;51.632;4.950;2022-07-18T07:37:56;23.10;20.30
21331;DHT22;10824;51.632;4.950;2022-07-18T07:40:26;23.20;21.00
21331;DHT22;10824;51.632;4.950;2022-07-18T07:43:08;23.40;21.70
21331;DHT22;10824;51.632;4.950;2022-07-18T07:45:37;23.50;20.00
21331;DHT22;10824;51.632;4.950;2022-07-18T07:48:05;23.60;18.70
21331;DHT22;10824;51.632;4.950;2022-07-18T07:50:33;23.80;18.80
21331;DHT22;10824;51.632;4.950;2022-07-18T07:53:01;23.90;17.80
21331;DHT22;10824;51.632;4.950;2022-07-18T07:55:28;24.10;16.30
21331;DHT22;10824;51.632;4.950;2022-07-18T07:57:55;24.20;16.20
21331;DHT22;10824;51.632;4.950;2022-07-18T08:00:22;24.30;15.60
21331;DHT22;10824;51.632;4.950;2022-07-18T08:02:58;24.40;17.00
21331;DHT22;10824;51.632;4.950;2022-07-18T08:05:27;24.50;16.80
21331;DHT22;10824;51.632;4.950;2022-07-18T08:08:00;24.50;15.30
21331;DHT22;10824;51.632;4.950;2022-07-18T08:10:29;24.70;16.40
21331;DHT22;10824;51.632;4.950;2022-07-18T08:12:56;24.90;15.90
21331;DHT22;10824;51.632;4.950;2022-07-18T08:15:24;25.00;14.40
21331;DHT22;10824;51.632;4.950;2022-07-18T08:17:53;25.20;13.20
21331;DHT22;10824;51.632;4.950;2022-07-18T08:20:21;25.30;13.40
21331;DHT22;10824;51.632;4.950;2022-07-18T08:25:23;25.40;11.70
21331;DHT22;10824;51.632;4.950;2022-07-18T08:27:51;25.40;12.80
21331;DHT22;10824;51.632;4.950;2022-07-18T08:30:18;25.40;13.10
21331;DHT22;10824;51.632;4.950;2022-07-18T08:32:45;25.70;12.10
21331;DHT22;10824;51.632;4.950;2022-07-18T08:35:13;25.70;10.80
21331;DHT22;10824;51.632;4.950;2022-07-18T08:37:40;25.90;10.30
21331;DHT22;10824;51.632;4.950;2022-07-18T08:40:08;26.10;10.70
21331;DHT22;10824;51.632;4.950;2022-07-18T08:42:36;26.20;12.20
21331;DHT22;10824;51.632;4.950;2022-07-18T08:45:23;26.30;10.30
21331;DHT22;10824;51.632;4.950;2022-07-18T08:47:51;26.50;8.80
21331;DHT22;10824;51.632;4.950;2022-07-18T08:50:19;26.70;7.90
21331;DHT22;10824;51.632;4.950;2022-07-18T08:52:46;26.80;8.50
21331;DHT22;10824;51.632;4.950;2022-07-18T08:55:21;26.90;7.20
21331;DHT22;10824;51.632;4.950;2022-07-18T08:57:52;26.90;4.60
21331;DHT22;10824;51.632;4.950;2022-07-18T09:00:20;27.10;5.50
21331;DHT22;10824;51.632;4.950;2022-07-18T09:03:00;27.30;5.60
21331;DHT22;10824;51.632;4.950;2022-07-18T09:05:28;27.50;3.90
21331;DHT22;10824;51.632;4.950;2022-07-18T09:08:12;27.40;5.30
21331;DHT22;10824;51.632;4.950;2022-07-18T09:10:47;27.70;4.20
21331;DHT22;10824;51.632;4.950;2022-07-18T09:13:15;27.70;3.20
21331;DHT22;10824;51.632;4.950;2022-07-18T09:15:57;27.90;3.60
21331;DHT22;10824;51.632;4.950;2022-07-18T09:18:29;28.10;2.80
21331;DHT22;10824;51.632;4.950;2022-07-18T09:21:07;28.20;1.00
21331;DHT22;10824;51.632;4.950;2022-07-18T09:23:38;28.20;1.10
21331;DHT22;10824;51.632;4.950;2022-07-18T09:26:06;28.20;1.00
21331;DHT22;10824;51.632;4.950;2022-07-18T09:28:53;28.00;1.00
21331;DHT22;10824;51.632;4.950;2022-07-18T09:31:49;28.30;1.10
21331;DHT22;10824;51.632;4.950;2022-07-18T09:34:38;28.60;1.00
21331;DHT22;10824;51.632;4.950;2022-07-18T09:37:10;28.40;1.00
21331;DHT22;10824;51.632;4.950;2022-07-18T09:39:38;28.30;1.00
21331;DHT22;10824;51.632;4.950;2022-07-18T09:42:18;28.30;1.00
21331;DHT22;10824;51.632;4.950;2022-07-18T09:44:58;28.50;1.00
21331;DHT22;10824;51.632;4.950;2022-07-18T09:47:26;28.60;1.00
21331;DHT22;10824;51.632;4.950;2022-07-18T09:49:54;28.60;1.00
21331;DHT22;10824;51.632;4.950;2022-07-18T09:52:22;28.70;1.00
21331;DHT22;10824;51.632;4.950;2022-07-18T09:54:49;29.00;1.00
21331;DHT22;10824;51.632;4.950;2022-07-18T09:57:25;28.80;1.00
21331;DHT22;10824;51.632;4.950;2022-07-18T09:59:52;29.20;1.00
21331;DHT22;10824;51.632;4.950;2022-07-18T10:02:20;29.10;1.00
21331;DHT22;10824;51.632;4.950;2022-07-18T10:04:47;29.30;1.00
21331;DHT22;10824;51.632;4.950;2022-07-18T10:07:15;29.50;1.00
21331;DHT22;10824;51.632;4.950;2022-07-18T10:09:44;29.60;1.00
21331;DHT22;10824;51.632;4.950;2022-07-18T10:12:15;29.90;1.00
21331;DHT22;10824;51.632;4.950;2022-07-18T10:14:44;30.30;1.00
21331;DHT22;10824;51.632;4.950;2022-07-18T10:17:11;30.10;1.00
21331;DHT22;10824;51.632;4.950;2022-07-18T10:19:40;29.90;1.00
21331;DHT22;10824;51.632;4.950;2022-07-18T10:22:07;30.00;1.00
21331;DHT22;10824;51.632;4.950;2022-07-18T10:24:38;30.50;1.00
21331;DHT22;10824;51.632;4.950;2022-07-18T10:27:20;30.70;1.00
21331;DHT22;10824;51.632;4.950;2022-07-18T10:30:09;30.70;1.00
21331;DHT22;10824;51.632;4.950;2022-07-18T10:32:37;30.60;1.00
21331;DHT22;10824;51.632;4.950;2022-07-18T10:35:04;30.60;1.00
21331;DHT22;10824;51.632;4.950;2022-07-18T10:37:34;30.80;1.00
21331;DHT22;10824;51.632;4.950;2022-07-18T10:40:22;30.80;1.00
21331;DHT22;10824;51.632;4.950;2022-07-18T10:45:58;31.20;1.00
21331;DHT22;10824;51.632;4.950;2022-07-18T10:51:13;31.50;1.00
21331;DHT22;10824;51.632;4.950;2022-07-18T10:54:04;31.60;1.00
21331;DHT22;10824;51.632;4.950;2022-07-18T10:59:34;31.20;1.00
21331;DHT22;10824;51.632;4.950;2022-07-18T11:02:05;31.40;1.00
21331;DHT22;10824;51.632;4.950;2022-07-18T11:04:38;31.50;1.00
21331;DHT22;10824;51.632;4.950;2022-07-18T11:07:14;32.10;1.00
21331;DHT22;10824;51.632;4.950;2022-07-18T11:09:46;32.20;1.00
21331;DHT22;10824;51.632;4.950;2022-07-18T11:12:40;32.30;1.00
21331;DHT22;10824;51.632;4.950;2022-07-18T11:15:13;31.90;1.00
21331;DHT22;10824;51.632;4.950;2022-07-18T11:18:00;31.70;1.00
21331;DHT22;10824;51.632;4.950;2022-07-18T11:20:39;31.60;1.00
21331;DHT22;10824;51.632;4.950;2022-07-18T11:23:42;31.70;1.00
21331;DHT22;10824;51.632;4.950;2022-07-18T11:26:18;32.70;1.00
21331;DHT22;10824;51.632;4.950;2022-07-18T11:28:57;32.40;1.00
21331;DHT22;10824;51.632;4.950;2022-07-18T11:31:25;32.30;1.00
21331;DHT22;10824;51.632;4.950;2022-07-18T11:33:53;32.40;1.00
21331;DHT22;10824;51.632;4.950;2022-07-18T11:36:23;32.70;1.00
21331;DHT22;10824;51.632;4.950;2022-07-18T11:39:01;31.90;1.00
21331;DHT22;10824;51.632;4.950;2022-07-18T11:41:29;32.30;1.00
21331;DHT22;10824;51.632;4.950;2022-07-18T11:44:00;32.10;1.00
21331;DHT22;10824;51.632;4.950;2022-07-18T11:46:27;32.70;1.00
21331;DHT22;10824;51.632;4.950;2022-07-18T11:49:03;32.80;1.00
21331;DHT22;10824;51.632;4.950;2022-07-18T11:51:40;32.90;1.00
21331;DHT22;10824;51.632;4.950;2022-07-18T11:54:08;33.10;1.00
21331;DHT22;10824;51.632;4.950;2022-07-18T11:56:49;33.50;1.00
21331;DHT22;10824;51.632;4.950;2022-07-18T11:59:17;33.20;1.00
21331;DHT22;10824;51.632;4.950;2022-07-18T12:01:44;33.50;1.00
21331;DHT22;10824;51.632;4.950;2022-07-18T12:04:22;33.20;1.00
21331;DHT22;10824;51.632;4.950;2022-07-18T12:07:17;33.30;1.00
21331;DHT22;10824;51.632;4.950;2022-07-18T12:09:47;33.20;1.00
21331;DHT22;10824;51.632;4.950;2022-07-18T12:12:16;32.40;1.00
21331;DHT22;10824;51.632;4.950;2022-07-18T12:15:07;32.90;1.00
21331;DHT22;10824;51.632;4.950;2022-07-18T12:17:44;33.50;1.00
21331;DHT22;10824;51.632;4.950;2022-07-18T12:20:17;34.20;1.00
21331;DHT22;10824;51.632;4.950;2022-07-18T12:23:04;34.10;1.00
21331;DHT22;10824;51.632;4.950;2022-07-18T12:25:41;33.80;1.00
21331;DHT22;10824;51.632;4.950;2022-07-18T12:28:16;34.10;1.00
21331;DHT22;10824;51.632;4.950;2022-07-18T12:30:47;34.40;1.00
21331;DHT22;10824;51.632;4.950;2022-07-18T12:33:14;34.60;1.00
21331;DHT22;10824;51.632;4.950;2022-07-18T12:35:44;34.60;1.00
21331;DHT22;10824;51.632;4.950;2022-07-18T12:38:16;34.90;1.00
21331;DHT22;10824;51.632;4.950;2022-07-18T12:46:00;34.50;1.00
21331;DHT22;10824;51.632;4.950;2022-07-18T12:48:42;34.20;1.00
21331;DHT22;10824;51.632;4.950;2022-07-18T12:51:17;34.10;1.00
21331;DHT22;10824;51.632;4.950;2022-07-18T12:53:47;34.50;1.00
21331;DHT22;10824;51.632;4.950;2022-07-18T12:56:17;34.50;1.00
21331;DHT22;10824;51.632;4.950;2022-07-18T12:58:47;34.70;1.00
21331;DHT22;10824;51.632;4.950;2022-07-18T13:01:14;34.50;1.00
21331;DHT22;10824;51.632;4.950;2022-07-18T13:03:42;35.20;1.00
21331;DHT22;10824;51.632;4.950;2022-07-18T13:06:10;34.90;1.00
21331;DHT22;10824;51.632;4.950;2022-07-18T13:08:40;35.00;1.00
21331;DHT22;10824;51.632;4.950;2022-07-18T13:11:07;35.00;1.00
21331;DHT22;10824;51.632;4.950;2022-07-18T13:13:34;34.70;1.00
21331;DHT22;10824;51.632;4.950;2022-07-18T13:16:02;34.50;1.00
21331;DHT22;10824;51.632;4.950;2022-07-18T13:18:29;34.60;1.00
21331;DHT22;10824;51.632;4.950;2022-07-18T13:20:59;35.20;1.00
21331;DHT22;10824;51.632;4.950;2022-07-18T13:23:27;34.90;1.00
21331;DHT22;10824;51.632;4.950;2022-07-18T13:25:54;35.00;1.00
21331;DHT22;10824;51.632;4.950;2022-07-18T13:28:21;35.30;1.00
21331;DHT22;10824;51.632;4.950;2022-07-18T13:30:48;35.20;1.00
21331;DHT22;10824;51.632;4.950;2022-07-18T13:33:19;35.20;1.00
21331;DHT22;10824;51.632;4.950;2022-07-18T13:35:46;35.00;1.00
21331;DHT22;10824;51.632;4.950;2022-07-18T13:38:15;35.30;1.00
21331;DHT22;10824;51.632;4.950;2022-07-18T13:40:42;35.00;1.00
21331;DHT22;10824;51.632;4.950;2022-07-18T13:43:09;34.80;1.00
21331;DHT22;10824;51.632;4.950;2022-07-18T13:45:38;34.90;1.00
21331;DHT22;10824;51.632;4.950;2022-07-18T13:48:05;35.40;1.00
21331;DHT22;10824;51.632;4.950;2022-07-18T13:50:34;35.60;1.00
21331;DHT22;10824;51.632;4.950;2022-07-18T13:53:01;35.40;1.00
21331;DHT22;10824;51.632;4.950;2022-07-18T13:55:28;35.40;1.00
21331;DHT22;10824;51.632;4.950;2022-07-18T13:57:56;35.20;1.00
21331;DHT22;10824;51.632;4.950;2022-07-18T14:00:23;35.40;1.00
21331;DHT22;10824;51.632;4.950;2022-07-18T14:02:51;35.10;1.00
21331;DHT22;10824;51.632;4.950;2022-07-18T14:05:18;35.30;1.00
21331;DHT22;10824;51.632;4.950;2022-07-18T14:07:45;35.80;1.00
21331;DHT22;10824;51.632;4.950;2022-07-18T14:10:14;35.50;1.00
21331;DHT22;10824;51.632;4.950;2022-07-18T14:12:42;35.80;1.00
21331;DHT22;10824;51.632;4.950;2022-07-18T14:15:12;35.80;1.00
21331;DHT22;10824;51.632;4.950;2022-07-18T14:17:41;35.50;1.00
21331;DHT22;10824;51.632;4.950;2022-07-18T14:20:09;35.70;1.00
21331;DHT22;10824;51.632;4.950;2022-07-18T14:22:39;35.40;1.00
21331;DHT22;10824;51.632;4.950;2022-07-18T14:25:08;35.50;1.00
21331;DHT22;10824;51.632;4.950;2022-07-18T14:27:36;35.40;1.00
21331;DHT22;10824;51.632;4.950;2022-07-18T14:30:06;35.40;1.00
21331;DHT22;10824;51.632;4.950;2022-07-18T14:32:35;35.60;1.00
21331;DHT22;10824;51.632;4.950;2022-07-18T14:35:03;35.50;1.00
21331;DHT22;10824;51.632;4.950;2022-07-18T14:37:30;35.40;1.00
21331;DHT22;10824;51.632;4.950;2022-07-18T14:39:57;35.30;1.00
21331;DHT22;10824;51.632;4.950;2022-07-18T14:42:25;35.10;1.00
21331;DHT22;10824;51.632;4.950;2022-07-18T14:44:53;35.60;1.00
21331;DHT22;10824;51.632;4.950;2022-07-18T14:47:21;35.80;1.00
21331;DHT22;10824;51.632;4.950;2022-07-18T14:49:51;35.60;1.00
21331;DHT22;10824;51.632;4.950;2022-07-18T14:52:18;36.00;1.00
21331;DHT22;10824;51.632;4.950;2022-07-18T14:54:46;36.10;1.00
21331;DHT22;10824;51.632;4.950;2022-07-18T14:57:13;36.00;1.00
21331;DHT22;10824;51.632;4.950;2022-07-18T14:59:43;35.90;1.00
21331;DHT22;10824;51.632;4.950;2022-07-18T15:02:10;36.00;1.00
21331;DHT22;10824;51.632;4.950;2022-07-18T15:04:40;36.10;1.00
21331;DHT22;10824;51.632;4.950;2022-07-18T15:07:07;36.00;1.00
21331;DHT22;10824;51.632;4.950;2022-07-18T15:09:34;35.90;1.00
21331;DHT22;10824;51.632;4.950;2022-07-18T15:12:02;36.00;1.00
21331;DHT22;10824;51.632;4.950;2022-07-18T15:14:31;36.00;1.00
21331;DHT22;10824;51.632;4.950;2022-07-18T15:16:58;35.90;1.00
21331;DHT22;10824;51.632;4.950;2022-07-18T15:19:25;35.70;1.00
21331;DHT22;10824;51.632;4.950;2022-07-18T15:21:52;35.80;1.00
21331;DHT22;10824;51.632;4.950;2022-07-18T15:24:19;35.60;1.00
21331;DHT22;10824;51.632;4.950;2022-07-18T15:26:47;35.80;1.00
21331;DHT22;10824;51.632;4.950;2022-07-18T15:29:17;35.90;1.00
21331;DHT22;10824;51.632;4.950;2022-07-18T15:31:44;35.50;1.00
21331;DHT22;10824;51.632;4.950;2022-07-18T15:34:11;35.40;1.00
21331;DHT22;10824;51.632;4.950;2022-07-18T15:36:38;35.40;1.00
21331;DHT22;10824;51.632;4.950;2022-07-18T15:39:07;35.40;1.00
21331;DHT22;10824;51.632;4.950;2022-07-18T15:41:34;35.10;1.00
21331;DHT22;10824;51.632;4.950;2022-07-18T15:44:01;35.30;1.00
21331;DHT22;10824;51.632;4.950;2022-07-18T15:46:28;35.50;1.00
21331;DHT22;10824;51.632;4.950;2022-07-18T15:48:56;35.60;1.00
21331;DHT22;10824;51.632;4.950;2022-07-18T15:51:23;35.70;1.00
21331;DHT22;10824;51.632;4.950;2022-07-18T15:53:50;35.60;1.00
21331;DHT22;10824;51.632;4.950;2022-07-18T15:56:18;35.60;1.00
21331;DHT22;10824;51.632;4.950;2022-07-18T15:58:46;35.70;1.00
21331;DHT22;10824;51.632;4.950;2022-07-18T16:01:15;35.90;1.00
21331;DHT22;10824;51.632;4.950;2022-07-18T16:03:43;35.90;1.00
21331;DHT22;10824;51.632;4.950;2022-07-18T16:06:15;35.60;1.00
21331;DHT22;10824;51.632;4.950;2022-07-18T16:08:43;35.30;1.00